createdAt,value
2024-01-11T10:41:52.015Z,1.68
2024-01-11T10:42:52.329Z,2.55
2024-01-11T10:43:53.733Z,3.37
2024-01-11T10:44:55.115Z,3.91
2024-01-11T10:45:56.549Z,4.73
2024-01-11T10:46:57.987Z,5.24
2024-01-11T10:48:02.699Z,5.53
2024-01-11T10:49:01.243Z,6.09
2024-01-11T10:50:02.679Z,6.43
2024-01-11T10:51:04.065Z,6.48
2024-01-11T10:52:05.527Z,6.32
2024-01-11T10:53:06.915Z,6.62
2024-01-11T10:54:08.785Z,6.71
2024-01-11T10:55:10.208Z,6.80
2024-01-11T10:56:11.670Z,6.87
2024-01-11T10:57:22.301Z,7.00
2024-01-11T10:58:14.869Z,7.15
2024-01-11T10:59:16.311Z,7.36
2024-01-11T11:00:17.686Z,7.20
2024-01-11T11:01:19.109Z,7.31
2024-01-11T11:02:20.622Z,7.58
2024-01-11T11:03:22.115Z,7.87
2024-01-11T11:04:24.138Z,7.93
2024-01-11T11:05:25.607Z,8.08
2024-01-11T11:06:27.215Z,8.32
2024-01-11T11:07:28.791Z,8.49
2024-01-11T11:08:30.203Z,8.51
2024-01-11T11:09:31.678Z,8.53
2024-01-11T11:10:33.057Z,8.81
2024-01-11T11:11:34.473Z,8.82
2024-01-11T11:12:35.858Z,8.84
2024-01-11T11:13:37.227Z,9.21
2024-01-11T11:14:38.683Z,9.43
2024-01-11T11:15:40.065Z,9.45
2024-01-11T11:16:41.499Z,9.49
2024-01-11T11:17:43.010Z,9.53
2024-01-11T11:18:44.493Z,9.67
2024-01-11T11:19:45.896Z,9.75
2024-01-11T11:20:47.343Z,9.84
2024-01-11T11:21:48.687Z,9.91
2024-01-11T11:22:50.088Z,9.87
2024-01-11T11:23:51.543Z,9.98
2024-01-11T11:24:52.896Z,10.09
2024-01-11T11:25:54.303Z,10.09
2024-01-11T11:26:55.815Z,10.17
2024-01-11T11:27:59.242Z,10.22
2024-01-11T11:28:58.388Z,9.86
2024-01-11T11:29:59.760Z,8.99
2024-01-11T11:31:01.162Z,7.94
2024-01-11T11:32:02.594Z,7.03
2024-01-11T11:33:04.096Z,6.19
2024-01-11T11:34:06.047Z,5.53
2024-01-11T11:35:07.418Z,4.96
2024-01-11T11:36:08.810Z,4.49
2024-01-11T11:37:10.216Z,4.17
2024-01-11T11:38:11.639Z,3.77
2024-01-11T11:39:13.040Z,3.39
2024-01-11T11:40:14.435Z,3.01
2024-01-11T11:41:15.885Z,2.69
2024-01-11T11:42:17.238Z,2.28
2024-01-11T11:43:18.636Z,1.80
2024-01-11T11:44:20.107Z,1.32
2024-01-11T13:09:20.480Z,-1.00
2024-01-11T13:10:21.895Z,-1.00
2024-01-11T14:57:55.257Z,-2.00
2024-01-11T14:58:55.227Z,-2.00
